Time;durP1;ratioP1;P1;durP2;ratioP2;P2;SDS_P1;SDS_P2;PMS_P1;PMS_P2;Temp;Humidity;BMP_temperature;BMP_pressure;BME280_temperature;BME280_humidity;BME280_pressure;Samples;Min_cycle;Max_cycle;Signal;HPM_P1;HPM_P2
2021/11/29 00:43:53;;;;;;;17.50;7.13;;;;;;;;;;6263791;22;20182;-88
2021/11/29 00:46:58;;;;;;;13.53;7.03;;;;;;;;;;6244804;23;20590;-88
2021/11/29 00:50:05;;;;;;;15.57;7.03;;;;;;;;;;6244297;23;20170;-89
2021/11/29 00:53:11;;;;;;;13.80;7.37;;;;;;;;;;6242660;22;20174;-91
2021/11/29 00:56:18;;;;;;;13.17;7.17;;;;;;;;;;6240050;23;20167;-90
2021/11/29 00:59:25;;;;;;;13.40;6.17;;;;;;;;;;6241726;23;20227;-91
2021/11/29 01:02:30;;;;;;;11.87;7.10;;;;;;;;;;6241897;22;20175;-91
2021/11/29 01:05:36;;;;;;;15.73;7.00;;;;;;;;;;6241538;23;20174;-91
2021/11/29 01:08:41;;;;;;;12.30;7.10;;;;;;;;;;6241056;23;20198;-88
2021/11/29 01:11:47;;;;;;;12.87;6.73;;;;;;;;;;6243443;23;20167;-90
2021/11/29 01:14:54;;;;;;;11.83;6.40;;;;;;;;;;6246520;22;20207;-90
2021/11/29 01:18:02;;;;;;;22.53;6.80;;;;;;;;;;6246687;22;20243;-91
2021/11/29 01:21:07;;;;;;;14.20;6.50;;;;;;;;;;6247125;23;20182;-91
2021/11/29 01:24:13;;;;;;;17.37;8.10;;;;;;;;;;6245691;23;20167;-90
2021/11/29 01:27:18;;;;;;;16.33;6.97;;;;;;;;;;6245866;23;20194;-90
2021/11/29 01:30:25;;;;;;;16.93;7.30;;;;;;;;;;6244245;22;20260;-91
2021/11/29 01:33:31;;;;;;;14.00;6.67;;;;;;;;;;6246192;22;20174;-90
2021/11/29 01:36:37;;;;;;;15.03;6.87;;;;;;;;;;6244290;22;20171;-89
2021/11/29 01:39:42;;;;;;;11.60;6.53;;;;;;;;;;6245516;23;20227;-89
2021/11/29 01:43:01;;;;;;;14.50;7.03;;;;;;;;;;6244919;23;20186;-90
2021/11/29 01:46:08;;;;;;;14.33;6.73;;;;;;;;;;6245814;23;20175;-90
2021/11/29 01:49:13;;;;;;;14.70;7.07;;;;;;;;;;6245031;22;20193;-89
2021/11/29 01:52:19;;;;;;;13.73;7.03;;;;;;;;;;6245674;22;20165;-90
2021/11/29 01:55:25;;;;;;;15.47;7.43;;;;;;;;;;6244412;23;20231;-89
2021/11/29 01:58:31;;;;;;;19.70;7.77;;;;;;;;;;6247756;23;20162;-90
2021/11/29 02:01:38;;;;;;;13.83;7.10;;;;;;;;;;6244415;23;20167;-91
2021/11/29 02:04:44;;;;;;;15.53;7.67;;;;;;;;;;6248712;22;20174;-89
2021/11/29 02:07:50;;;;;;;15.50;7.67;;;;;;;;;;6245735;23;20198;-90
2021/11/29 02:10:56;;;;;;;21.30;8.30;;;;;;;;;;6245421;23;20178;-90
2021/11/29 02:14:01;;;;;;;19.50;8.07;;;;;;;;;;6246926;22;20247;-89
2021/11/29 02:17:08;;;;;;;18.67;8.40;;;;;;;;;;6244206;22;20317;-89
2021/11/29 02:20:14;;;;;;;17.93;8.13;;;;;;;;;;6244632;23;20158;-89
2021/11/29 02:23:21;;;;;;;15.97;8.17;;;;;;;;;;6245034;22;20165;-89
2021/11/29 02:26:28;;;;;;;17.47;8.33;;;;;;;;;;6244546;22;20626;-89
2021/11/29 02:29:33;;;;;;;20.67;9.13;;;;;;;;;;6245877;22;20205;-88
2021/11/29 02:32:39;;;;;;;21.03;9.70;;;;;;;;;;6246772;23;20170;-91
2021/11/29 02:35:44;;;;;;;18.87;8.30;;;;;;;;;;6247230;22;20191;-89
2021/11/29 02:38:52;;;;;;;19.57;9.33;;;;;;;;;;6244950;23;20549;-91
2021/11/29 02:41:59;;;;;;;19.87;9.13;;;;;;;;;;6244148;22;20182;-89
2021/11/29 02:45:05;;;;;;;17.93;9.13;;;;;;;;;;6241705;23;20182;-91
2021/11/29 02:48:10;;;;;;;19.97;9.57;;;;;;;;;;6243711;22;20198;-90
2021/11/29 02:51:20;;;;;;;19.60;8.77;;;;;;;;;;6245548;22;20189;-90
2021/11/29 02:54:28;;;;;;;19.00;8.27;;;;;;;;;;6243635;23;20219;-90
2021/11/29 02:57:34;;;;;;;20.43;8.93;;;;;;;;;;6245406;22;20189;-90
2021/11/29 03:00:39;;;;;;;16.60;8.13;;;;;;;;;;6245543;22;20166;-90
2021/11/29 03:03:49;;;;;;;16.70;8.10;;;;;;;;;;6244423;23;20315;-91
2021/11/29 03:06:54;;;;;;;19.10;9.37;;;;;;;;;;6245522;22;20170;-90
2021/11/29 03:10:01;;;;;;;20.50;9.10;;;;;;;;;;6243599;23;20254;-89
2021/11/29 03:13:05;;;;;;;20.37;9.90;;;;;;;;;;6243645;22;20281;-90
2021/11/29 03:16:11;;;;;;;31.20;11.60;;;;;;;;;;6241311;22;20562;-90
2021/11/29 03:19:16;;;;;;;25.17;10.77;;;;;;;;;;6246258;23;20214;-90
2021/11/29 03:22:22;;;;;;;24.80;10.70;;;;;;;;;;6262048;23;20194;-91
2021/11/29 03:25:28;;;;;;;20.80;9.87;;;;;;;;;;6246479;23;20175;-90
2021/11/29 03:28:39;;;;;;;24.17;11.13;;;;;;;;;;6244170;23;20568;-90
2021/11/29 03:31:45;;;;;;;26.97;11.60;;;;;;;;;;6244577;22;20167;-89
2021/11/29 03:34:53;;;;;;;20.30;9.83;;;;;;;;;;6262421;23;20222;-90
2021/11/29 03:37:58;;;;;;;21.07;10.00;;;;;;;;;;6245721;23;20597;-92
2021/11/29 03:41:06;;;;;;;25.00;10.60;;;;;;;;;;6245771;22;20173;-90
2021/11/29 03:44:12;;;;;;;29.70;12.00;;;;;;;;;;6243922;22;20185;-90
2021/11/29 03:47:17;;;;;;;25.53;11.03;;;;;;;;;;6246384;23;20170;-88
2021/11/29 03:50:23;;;;;;;23.13;10.77;;;;;;;;;;6246116;22;20170;-89
2021/11/29 03:53:28;;;;;;;27.37;11.57;;;;;;;;;;6245447;23;20234;-89
2021/11/29 03:56:36;;;;;;;25.43;11.43;;;;;;;;;;6243808;22;20166;-90
2021/11/29 03:59:41;;;;;;;22.03;10.67;;;;;;;;;;6244076;23;20167;-91
2021/11/29 04:02:46;;;;;;;23.37;10.70;;;;;;;;;;6243855;23;20213;-90
2021/11/29 04:05:54;;;;;;;23.97;10.43;;;;;;;;;;6243206;23;20218;-90
2021/11/29 04:08:59;;;;;;;27.70;11.77;;;;;;;;;;6245037;22;20288;-90
2021/11/29 04:12:07;;;;;;;26.83;11.67;;;;;;;;;;6245244;23;20185;-90
2021/11/29 04:15:12;;;;;;;25.77;11.37;;;;;;;;;;6244630;23;20323;-89
2021/11/29 04:18:18;;;;;;;31.33;12.33;;;;;;;;;;6260027;22;20496;-91
2021/11/29 04:21:23;;;;;;;28.03;12.83;;;;;;;;;;6241943;22;20158;-89
2021/11/29 04:24:28;;;;;;;31.63;12.17;;;;;;;;;;6244348;23;20153;-90
2021/11/29 04:27:36;;;;;;;29.60;11.30;;;;;;;;;;6242520;23;20249;-88
2021/11/29 04:30:42;;;;;;;29.30;11.60;;;;;;;;;;6242886;23;20175;-89
2021/11/29 04:33:47;;;;;;;26.97;11.20;;;;;;;;;;6244898;23;20235;-90
2021/11/29 04:36:53;;;;;;;32.47;12.77;;;;;;;;;;6243800;22;20167;-88
2021/11/29 04:39:58;;;;;;;30.77;13.00;;;;;;;;;;6243963;23;20170;-91
2021/11/29 04:43:05;;;;;;;28.83;13.17;;;;;;;;;;6244266;22;20205;-90
2021/11/29 04:46:11;;;;;;;30.40;11.93;;;;;;;;;;6246233;23;20331;-89
2021/11/29 04:49:16;;;;;;;41.93;13.73;;;;;;;;;;6246850;23;20214;-90
2021/11/29 04:52:22;;;;;;;31.50;12.47;;;;;;;;;;6246843;23;20474;-91
2021/11/29 04:55:27;;;;;;;31.37;13.30;;;;;;;;;;6245958;22;20241;-88
2021/11/29 04:58:34;;;;;;;27.30;12.23;;;;;;;;;;6264447;22;20236;-90
2021/11/29 05:01:41;;;;;;;31.87;12.90;;;;;;;;;;6247254;23;20241;-89
2021/11/29 05:04:46;;;;;;;25.80;12.43;;;;;;;;;;6246473;23;20171;-89
2021/11/29 05:07:52;;;;;;;31.17;12.23;;;;;;;;;;6246003;23;20486;-89
2021/11/29 05:10:57;;;;;;;29.77;12.30;;;;;;;;;;6245274;22;20231;-90
2021/11/29 05:14:04;;;;;;;28.00;11.90;;;;;;;;;;6246384;22;20219;-90
2021/11/29 05:17:11;;;;;;;24.00;11.47;;;;;;;;;;6247461;22;20166;-90
2021/11/29 05:20:16;;;;;;;28.63;11.40;;;;;;;;;;6245914;23;20174;-90
2021/11/29 05:23:21;;;;;;;28.43;12.40;;;;;;;;;;6248087;23;20162;-88
2021/11/29 05:26:27;;;;;;;27.07;12.10;;;;;;;;;;6246230;23;20166;-91
2021/11/29 05:29:34;;;;;;;29.17;12.67;;;;;;;;;;6246915;22;20226;-89
2021/11/29 05:32:39;;;;;;;33.53;13.00;;;;;;;;;;6245382;23;20163;-89
2021/11/29 05:35:45;;;;;;;27.87;11.03;;;;;;;;;;6248563;23;20170;-90
2021/11/29 12:21:18;;;;;;;25.47;11.47;;;;;;;;;;6203814;22;20215;-90
2021/11/29 23:01:18;;;;;;;15.17;6.37;;;;;;;;;;6212634;22;20487;-92
2021/11/29 23:04:28;;;;;;;13.70;6.37;;;;;;;;;;6233769;23;20170;-91
2021/11/29 23:07:36;;;;;;;12.67;5.90;;;;;;;;;;6238054;23;20194;-90
2021/11/29 23:10:41;;;;;;;11.63;5.97;;;;;;;;;;6235677;23;20241;-89
2021/11/29 23:17:08;;;;;;;14.43;5.77;;;;;;;;;;6233350;23;20190;-92
2021/11/29 23:20:22;;;;;;;13.37;6.47;;;;;;;;;;6235806;23;20163;-89
2021/11/29 23:23:28;;;;;;;14.20;6.30;;;;;;;;;;6234778;23;20171;-90
2021/11/29 23:26:34;;;;;;;12.17;5.60;;;;;;;;;;6235688;23;20271;-93
2021/11/29 23:29:39;;;;;;;12.93;6.27;;;;;;;;;;6234278;23;20195;-90
2021/11/29 23:32:46;;;;;;;10.10;6.10;;;;;;;;;;6234379;23;20214;-92
2021/11/29 23:35:53;;;;;;;13.60;6.43;;;;;;;;;;6232809;23;20171;-91
2021/11/29 23:39:02;;;;;;;11.30;6.03;;;;;;;;;;6234694;23;20219;-91
2021/11/29 23:42:08;;;;;;;14.80;5.87;;;;;;;;;;6233131;23;20197;-92
2021/11/29 23:45:14;;;;;;;13.47;6.90;;;;;;;;;;6235022;23;20244;-90
2021/11/29 23:48:30;;;;;;;12.90;6.37;;;;;;;;;;6234153;23;20234;-89
2021/11/29 23:51:36;;;;;;;14.53;6.23;;;;;;;;;;6233840;23;20242;-90
2021/11/29 23:54:43;;;;;;;14.07;6.53;;;;;;;;;;6233496;23;20171;-89
2021/11/29 23:57:49;;;;;;;13.97;7.00;;;;;;;;;;6235626;23;20226;-90
